18:06
Airports
History
Links
Donate
Help keep this website running!
PayPal
Bitcoin
This page is community maintained. The information is intended for PC simulator navigation or reference.
Always use approved charts for navigation.
SSFE
ESTANCIA HERCULES
ESTANCIA HERCULES (SSFE)
Foz do Iguaçu, Paraná, Brazil (85867)
(U)
Lat/Lng:25° 27' 38.54" S / 54° 35' 55.51" W
-25.460706 / -54.598752
Elevation:558'ft / 170mMSL
ID / ICAO:SSFE
Runways:1
Longest:17-35
Asphalt 1,014m / 3,326ft
Nearby Weather18:00 GMT 2017-10-19
Nearby weather at SBFI, Foz Do Iguacu located 11.6 nautical miles from SSFE
Altimeter: 29.94
Visibility: 6.2 statute miles
Wind: 7 knots (from 090°)
Temp: 22°c / 72°f
Humidity: 73.3%

METAR: SBFI 191800Z 09007KT 9999 SCT025 FEW030TCU BKN100 22/17 Q1014

(Powered by phpweather)
Runway 17 / 35
Dimensions:1013.9 x 18m 3326' x 59'ft
Surface:Asphalt
Runway 17 [A]Runway 35 [B]
Heading:000°TH 180°TH
Lat:
Lng:
25° 27' 54.95"S
54° 35' 55.56"W
25° 27' 22.13"S
54° 35' 55.45"W
User Notes and Comments
25° 27' 38.54" S / 54° 35' 55.51" W
Distance To
Airport ID:
Nearby Airports
(C) ITAIPU 3.9 NM
SGIB NNW 340°
4 Aeroclube de Foz do lguacu 10.2 NM
SSAF NE 51°
(C) Foz Do Iguacu 11.6 NM
SBFI ( WX ) SE 143°
4 Fazenda Paulista 12.7 NM
SNUA ENE 67°
(C) GUARANI INTL 15.3 NM
SGES ( WX ) W 271°
(C) CATARATAS DEL IGUAZU 20.6 NM
SARI SSE 157°
(C) Sao Miguel Do Iguacu 21.2 NM
SSMY ENE 76°
VFR Chart
Flight Planning at SkyVector.com